createdAt,value
2018-11-11T00:00:50.317Z,18.77
2018-11-11T00:03:25.998Z,18.13
2018-11-11T00:06:02.027Z,19.28
2018-11-11T00:08:39.418Z,19.66
2018-11-11T00:11:15.303Z,19.75
2018-11-11T00:13:50.939Z,19.32
2018-11-11T00:16:27.284Z,19.00
2018-11-11T00:19:02.979Z,19.12
2018-11-11T00:21:39.031Z,18.99
2018-11-11T00:24:15.268Z,20.38
2018-11-11T00:26:51.082Z,19.42
2018-11-11T00:29:26.785Z,19.84
2018-11-11T00:32:02.658Z,19.41
2018-11-11T00:34:38.661Z,19.48
2018-11-11T00:37:15.092Z,20.00
2018-11-11T00:39:51.277Z,20.17
2018-11-11T00:42:27.279Z,19.94
2018-11-11T00:45:03.266Z,20.73
2018-11-11T00:47:38.975Z,20.32
2018-11-11T00:50:15.714Z,20.63
2018-11-11T00:52:51.419Z,20.85
2018-11-11T00:55:27.433Z,21.53
2018-11-11T00:58:02.845Z,20.35
2018-11-11T01:00:39.604Z,21.22
2018-11-11T01:03:15.090Z,21.05
2018-11-11T01:05:50.862Z,21.74
2018-11-11T01:08:26.657Z,20.65
2018-11-11T01:11:02.659Z,21.02
2018-11-11T01:13:38.634Z,20.71
2018-11-11T01:16:14.480Z,21.42
2018-11-11T01:18:49.994Z,21.64
2018-11-11T01:21:26.097Z,21.98
2018-11-11T01:24:02.057Z,20.93
2018-11-11T01:26:38.438Z,21.12
2018-11-11T01:29:14.091Z,21.90
2018-11-11T01:31:50.218Z,22.21
2018-11-11T01:34:26.043Z,22.74
2018-11-11T01:37:02.095Z,22.02
2018-11-11T01:39:37.828Z,21.99
2018-11-11T01:43:39.879Z,21.84
2018-11-11T01:46:16.085Z,22.92
2018-11-11T01:48:51.710Z,22.40
2018-11-11T01:51:27.860Z,22.45
2018-11-11T01:54:03.477Z,23.11
2018-11-11T01:56:39.099Z,22.28
2018-11-11T01:59:14.857Z,23.28
2018-11-11T02:01:50.291Z,23.10
2018-11-11T02:04:26.429Z,23.18
2018-11-11T02:07:02.314Z,22.63
2018-11-11T02:09:38.462Z,23.38
2018-11-11T02:12:14.085Z,22.13
2018-11-11T02:14:50.222Z,23.13
2018-11-11T02:17:26.223Z,23.66
2018-11-11T02:20:03.280Z,22.91
2018-11-11T02:22:39.010Z,23.76
2018-11-11T02:25:14.856Z,23.47
2018-11-11T02:27:50.916Z,22.59
2018-11-11T02:30:26.910Z,23.25
2018-11-11T02:33:03.567Z,23.07
2018-11-11T02:35:39.927Z,23.34
2018-11-11T02:38:16.283Z,23.34
2018-11-11T02:40:51.927Z,23.33
2018-11-11T02:43:28.267Z,23.25
2018-11-11T02:46:58.883Z,23.79
2018-11-11T02:49:34.855Z,24.01
2018-11-11T02:52:11.105Z,23.01
2018-11-11T02:54:46.877Z,23.35
2018-11-11T02:57:23.073Z,23.08
2018-11-11T02:59:59.102Z,23.77
2018-11-11T03:02:35.269Z,23.40
2018-11-11T03:05:12.385Z,23.19
2018-11-11T03:07:48.370Z,23.26
2018-11-11T03:10:24.458Z,23.19
2018-11-11T03:13:00.826Z,23.88
2018-11-11T03:15:38.089Z,24.47
2018-11-11T03:18:13.989Z,23.87
2018-11-11T03:20:50.054Z,24.36
2018-11-11T03:23:26.070Z,23.75
2018-11-11T03:26:02.002Z,24.55
2018-11-11T03:28:38.062Z,24.12
2018-11-11T03:31:14.008Z,24.89
2018-11-11T03:33:50.001Z,24.44
2018-11-11T03:36:25.737Z,24.49
2018-11-11T03:39:02.086Z,24.62
2018-11-11T03:41:38.000Z,24.60
2018-11-11T03:44:13.939Z,24.77
2018-11-11T03:46:49.998Z,24.68
2018-11-11T03:49:25.648Z,24.61
2018-11-11T03:52:01.454Z,24.18
2018-11-11T03:54:37.485Z,24.50
2018-11-11T03:57:13.976Z,24.58
2018-11-11T03:59:50.089Z,24.81
2018-11-11T04:02:25.634Z,25.04
2018-11-11T04:05:02.060Z,25.30
2018-11-11T04:07:37.847Z,25.21
2018-11-11T04:10:18.538Z,23.94
2018-11-11T04:14:03.088Z,19.43
2018-11-11T04:16:49.043Z,20.55
2018-11-11T04:19:36.770Z,22.84
2018-11-11T04:26:08.328Z,23.71
2018-11-11T04:28:44.925Z,24.62
2018-11-11T04:31:25.352Z,24.68
2018-11-11T04:34:52.245Z,24.25
2018-11-11T04:37:35.348Z,25.13
2018-11-11T04:54:14.692Z,25.51
2018-11-11T04:56:55.260Z,25.84
2018-11-11T05:15:30.331Z,29.35
2018-11-11T05:18:06.273Z,28.30
2018-11-11T05:20:42.002Z,29.00
2018-11-11T05:26:01.267Z,27.71
2018-11-11T05:28:37.855Z,28.01
2018-11-11T05:31:14.320Z,26.82
2018-11-11T05:33:50.482Z,27.98
2018-11-11T05:36:26.794Z,28.48
2018-11-11T05:39:03.066Z,27.86
2018-11-11T05:41:39.070Z,27.34
2018-11-11T05:44:15.046Z,27.24
2018-11-11T05:46:51.078Z,26.59
2018-11-11T05:49:27.097Z,27.51
2018-11-11T05:52:03.100Z,26.70
2018-11-11T05:54:38.903Z,26.80
2018-11-11T05:57:15.095Z,26.45
2018-11-11T05:59:51.295Z,26.49
2018-11-11T06:02:27.482Z,26.46
2018-11-11T06:05:03.438Z,26.28
2018-11-11T06:07:40.009Z,26.98
2018-11-11T06:10:16.926Z,26.25
2018-11-11T06:12:52.878Z,25.71
2018-11-11T06:15:28.905Z,26.91
2018-11-11T06:18:05.217Z,26.85
2018-11-11T06:20:41.488Z,25.41
2018-11-11T06:25:31.834Z,26.32
2018-11-11T06:28:07.455Z,26.07
2018-11-11T06:30:43.114Z,26.33
2018-11-11T06:33:19.116Z,26.24
2018-11-11T06:35:55.081Z,25.56
2018-11-11T06:38:31.097Z,25.93
2018-11-11T06:41:07.097Z,25.57
2018-11-11T06:43:42.865Z,25.36
2018-11-11T06:46:18.806Z,25.67
2018-11-11T06:48:55.230Z,25.82
2018-11-11T06:51:31.290Z,25.75
2018-11-11T06:54:07.325Z,25.06
2018-11-11T06:56:43.025Z,25.17
2018-11-11T06:59:19.318Z,25.13
2018-11-11T07:04:03.139Z,25.35
2018-11-11T07:06:39.170Z,26.38
2018-11-11T07:09:15.310Z,25.86
2018-11-11T07:11:51.529Z,25.81
2018-11-11T07:14:27.957Z,25.94
2018-11-11T07:17:04.317Z,25.39
2018-11-11T07:19:40.447Z,25.47
2018-11-11T07:22:16.469Z,25.78
2018-11-11T07:24:52.629Z,26.71
2018-11-11T07:27:28.314Z,25.78
2018-11-11T07:30:05.061Z,26.44
2018-11-11T07:32:41.057Z,26.64
2018-11-11T07:35:17.211Z,26.25
2018-11-11T07:37:53.465Z,26.56
2018-11-11T07:40:29.802Z,25.75
2018-11-11T07:43:06.086Z,25.66
2018-11-11T07:45:42.261Z,25.37
2018-11-11T07:48:18.360Z,26.20
2018-11-11T07:50:54.870Z,25.48
2018-11-11T07:53:31.049Z,26.32
2018-11-11T07:56:07.001Z,25.85
2018-11-11T07:58:43.238Z,25.14
2018-11-11T08:01:19.994Z,25.05
2018-11-11T08:03:55.995Z,25.36
2018-11-11T08:06:32.091Z,25.98
2018-11-11T08:09:09.085Z,25.58
2018-11-11T08:12:01.476Z,25.31
2018-11-11T08:14:37.307Z,26.06
2018-11-11T08:17:13.473Z,25.36
2018-11-11T08:19:50.050Z,25.79
2018-11-11T08:22:26.087Z,25.07
2018-11-11T08:25:02.205Z,26.18
2018-11-11T08:27:37.989Z,25.60
2018-11-11T08:30:14.837Z,24.74
2018-11-11T08:32:51.518Z,25.82
2018-11-11T08:35:27.754Z,25.09
2018-11-11T08:38:03.827Z,25.81
2018-11-11T08:40:39.899Z,26.28
2018-11-11T08:43:16.263Z,25.59
2018-11-11T08:45:52.253Z,25.36
2018-11-11T08:48:28.271Z,25.93
2018-11-11T08:51:04.318Z,24.99
2018-11-11T08:53:40.263Z,25.71
2018-11-11T08:56:16.435Z,25.28
2018-11-11T08:58:50.554Z,25.60
2018-11-11T09:02:40.432Z,25.56
2018-11-11T09:05:16.961Z,25.05
2018-11-11T09:07:53.260Z,26.27
2018-11-11T09:10:29.702Z,25.98
2018-11-11T09:13:05.961Z,25.69
2018-11-11T09:15:42.079Z,24.59
2018-11-11T09:18:18.073Z,25.89
2018-11-11T09:20:53.992Z,26.13
2018-11-11T09:23:30.068Z,25.85
2018-11-11T09:26:06.087Z,25.29
2018-11-11T09:28:42.372Z,25.09
2018-11-11T09:31:18.793Z,24.92
2018-11-11T09:33:55.282Z,25.14
2018-11-11T09:36:31.505Z,25.85
2018-11-11T09:39:10.521Z,25.05
2018-11-11T09:41:46.886Z,25.40
2018-11-11T09:44:23.085Z,25.23
2018-11-11T09:46:59.305Z,25.46
2018-11-11T09:49:35.111Z,24.70
2018-11-11T09:52:11.078Z,25.58
2018-11-11T09:54:47.285Z,24.89
2018-11-11T09:57:23.635Z,25.32
2018-11-11T09:59:59.853Z,24.94
2018-11-11T10:02:36.382Z,24.56
2018-11-11T10:05:47.415Z,24.50
2018-11-11T10:08:28.926Z,25.95
2018-11-11T10:11:09.481Z,24.28
2018-11-11T10:14:05.095Z,25.13
2018-11-11T10:16:46.211Z,25.59
2018-11-11T10:19:31.441Z,24.69
2018-11-11T10:22:15.053Z,25.53
2018-11-11T10:25:57.223Z,25.14
2018-11-11T10:28:40.101Z,24.82
2018-11-11T10:31:20.440Z,25.70
2018-11-11T10:34:00.363Z,25.10
2018-11-11T10:36:40.256Z,25.41
2018-11-11T10:39:21.308Z,25.08
2018-11-11T10:43:05.712Z,24.91
2018-11-11T10:45:45.549Z,24.31
2018-11-11T10:48:28.983Z,25.55
2018-11-11T10:51:06.442Z,25.27
2018-11-11T10:53:42.849Z,24.56
2018-11-11T10:56:19.033Z,25.05
2018-11-11T10:58:54.917Z,23.96
2018-11-11T11:02:40.553Z,24.82
2018-11-11T11:05:16.296Z,25.33
2018-11-11T11:07:52.431Z,25.73
2018-11-11T11:10:28.486Z,25.10
2018-11-11T11:13:04.490Z,26.08
2018-11-11T11:15:40.861Z,25.44
2018-11-11T11:18:16.977Z,25.61
2018-11-11T11:20:53.083Z,24.69
2018-11-11T11:23:29.451Z,24.80
2018-11-11T11:26:05.503Z,24.95
2018-11-11T11:28:41.761Z,24.98
2018-11-11T11:31:17.765Z,24.86
2018-11-11T11:33:54.066Z,26.15
2018-11-11T11:36:30.088Z,25.04
2018-11-11T11:39:06.961Z,25.50
2018-11-11T11:41:42.969Z,24.63
2018-11-11T11:44:19.017Z,24.14
2018-11-11T11:46:55.054Z,24.89
2018-11-11T11:49:31.066Z,25.87
2018-11-11T11:52:07.315Z,25.41
2018-11-11T11:54:43.271Z,24.64
2018-11-11T11:57:19.260Z,24.71
2018-11-11T12:02:36.261Z,24.83
2018-11-11T12:05:13.210Z,25.66
2018-11-11T12:07:49.077Z,24.80
2018-11-11T12:10:25.049Z,25.14
2018-11-11T12:13:01.538Z,24.69
2018-11-11T12:15:37.265Z,25.01
2018-11-11T12:18:13.252Z,24.52
2018-11-11T12:20:49.105Z,24.36
2018-11-11T12:23:25.090Z,25.78
2018-11-11T12:26:02.080Z,25.00
2018-11-11T12:28:38.904Z,24.56
2018-11-11T12:31:14.912Z,25.06
2018-11-11T12:33:51.006Z,25.11
2018-11-11T12:36:27.260Z,25.10
2018-11-11T12:39:03.129Z,25.62
2018-11-11T12:41:39.462Z,23.92
2018-11-11T12:44:15.705Z,25.06
2018-11-11T12:46:51.895Z,25.63
2018-11-11T12:49:28.270Z,24.40
2018-11-11T12:52:04.253Z,25.49
2018-11-11T12:54:40.313Z,25.79
2018-11-11T12:57:16.260Z,25.11
2018-11-11T12:59:52.278Z,25.23
2018-11-11T13:02:28.260Z,25.53
2018-11-11T13:05:04.450Z,25.19
2018-11-11T13:07:40.313Z,24.45
2018-11-11T13:10:17.069Z,25.27
2018-11-11T13:12:53.777Z,24.74
2018-11-11T13:15:29.751Z,24.88
2018-11-11T13:18:05.993Z,25.02
2018-11-11T13:20:42.077Z,24.82
2018-11-11T13:23:18.414Z,25.73
2018-11-11T13:25:54.272Z,24.83
2018-11-11T13:28:30.553Z,23.99
2018-11-11T13:31:06.793Z,24.78
2018-11-11T13:33:42.790Z,25.02
2018-11-11T13:36:19.001Z,25.22
2018-11-11T13:38:55.038Z,25.09
2018-11-11T13:41:30.737Z,24.89
2018-11-11T13:44:06.557Z,24.83
2018-11-11T13:46:42.978Z,24.84
2018-11-11T13:49:19.046Z,25.11
2018-11-11T13:51:55.118Z,24.24
2018-11-11T13:54:31.469Z,24.70
2018-11-11T13:57:07.806Z,24.96
2018-11-11T13:59:44.086Z,24.39
2018-11-11T14:02:20.409Z,25.16
2018-11-11T14:04:57.083Z,25.03
2018-11-11T14:07:33.081Z,24.34
2018-11-11T14:10:10.065Z,24.16
2018-11-11T14:12:46.257Z,25.14
2018-11-11T14:15:25.824Z,24.25
2018-11-11T14:18:02.176Z,25.38
2018-11-11T14:20:38.762Z,24.68
2018-11-11T14:23:15.294Z,24.47
2018-11-11T14:25:51.525Z,25.58
2018-11-11T14:28:28.257Z,24.14
2018-11-11T14:31:04.258Z,25.21
2018-11-11T14:33:40.258Z,25.13
2018-11-11T14:36:16.254Z,24.76
2018-11-11T14:38:52.262Z,24.39
2018-11-11T14:43:18.839Z,25.09
2018-11-11T14:45:54.956Z,24.84
2018-11-11T14:48:31.042Z,24.09
2018-11-11T14:51:07.010Z,25.01
2018-11-11T14:53:43.042Z,24.96
2018-11-11T14:56:18.912Z,25.46
2018-11-11T14:58:55.140Z,24.43
2018-11-11T15:01:31.270Z,24.13
2018-11-11T15:04:07.536Z,24.26
2018-11-11T15:06:43.913Z,25.23
2018-11-11T15:09:20.008Z,25.24
2018-11-11T15:11:56.058Z,25.16
2018-11-11T15:14:32.362Z,25.25
2018-11-11T15:17:08.254Z,24.52
2018-11-11T15:19:44.351Z,24.42
2018-11-11T15:22:20.898Z,25.48
2018-11-11T15:24:56.919Z,23.89
2018-11-11T15:27:32.922Z,24.52
2018-11-11T15:30:09.451Z,25.22
2018-11-11T15:32:46.497Z,24.40
2018-11-11T15:35:22.865Z,24.19
2018-11-11T15:37:59.108Z,24.64
2018-11-11T15:40:36.364Z,25.28
2018-11-11T15:43:12.923Z,24.51
2018-11-11T15:45:49.038Z,24.25
2018-11-11T15:48:25.088Z,25.15
2018-11-11T15:51:01.468Z,24.36
2018-11-11T15:53:37.981Z,24.52
2018-11-11T15:56:14.082Z,25.49
2018-11-11T15:58:50.086Z,25.11
2018-11-11T16:01:26.085Z,24.46
2018-11-11T16:04:02.092Z,24.98
2018-11-11T16:06:38.090Z,24.56
2018-11-11T16:09:14.926Z,24.86
2018-11-11T16:11:50.988Z,24.32
2018-11-11T16:14:26.947Z,24.03
2018-11-11T16:17:03.205Z,25.26
2018-11-11T16:19:39.475Z,24.91
2018-11-11T16:22:15.793Z,24.77
2018-11-11T16:24:52.259Z,25.52
2018-11-11T16:27:28.258Z,24.26
2018-11-11T16:30:05.048Z,25.36
2018-11-11T16:32:41.851Z,25.26
2018-11-11T16:35:19.207Z,24.46
2018-11-11T16:37:55.065Z,24.03
2018-11-11T16:40:33.096Z,24.47
2018-11-11T16:43:09.257Z,25.24
2018-11-11T16:45:45.271Z,24.52
2018-11-11T16:48:21.417Z,24.52
2018-11-11T16:50:57.309Z,24.33
2018-11-11T16:53:33.300Z,25.15
2018-11-11T16:56:09.753Z,25.22
2018-11-11T16:58:45.880Z,24.39
2018-11-11T17:01:21.833Z,24.83
2018-11-11T17:03:58.252Z,24.75
2018-11-11T17:06:35.023Z,25.52
2018-11-11T17:09:15.422Z,25.25
2018-11-11T17:11:52.077Z,25.06
2018-11-11T17:14:28.257Z,24.58
2018-11-11T17:17:04.307Z,24.88
2018-11-11T17:19:40.395Z,23.25
2018-11-11T17:22:16.579Z,22.86
2018-11-11T17:24:52.980Z,21.75
2018-11-11T17:27:29.205Z,21.90
2018-11-11T17:30:06.161Z,21.96
2018-11-11T17:33:42.404Z,23.49
2018-11-11T17:36:18.812Z,23.70
2018-11-11T17:38:54.615Z,23.50
2018-11-11T17:41:30.596Z,24.29
2018-11-11T17:44:06.670Z,23.22
2018-11-11T17:46:42.454Z,23.13
2018-11-11T17:49:18.721Z,24.58
2018-11-11T17:51:54.589Z,24.54
2018-11-11T17:54:30.074Z,23.34
2018-11-11T17:57:05.646Z,24.28
2018-11-11T17:59:41.766Z,23.87
2018-11-11T18:02:17.862Z,23.82
2018-11-11T18:04:55.626Z,23.82
2018-11-11T18:07:31.609Z,23.61
2018-11-11T18:10:07.332Z,24.32
2018-11-11T18:12:44.009Z,23.28
2018-11-11T18:15:21.277Z,23.96
2018-11-11T18:17:56.986Z,23.51
2018-11-11T18:20:34.086Z,23.51
2018-11-11T18:23:10.116Z,23.25
2018-11-11T18:25:46.613Z,23.64
2018-11-11T18:28:22.348Z,24.39
2018-11-11T18:30:58.179Z,23.80
2018-11-11T18:33:34.293Z,23.56
2018-11-11T18:36:10.624Z,23.39
2018-11-11T18:38:46.263Z,23.52
2018-11-11T18:41:22.610Z,23.71
2018-11-11T18:43:58.598Z,23.94
2018-11-11T18:46:34.197Z,23.14
2018-11-11T18:49:10.281Z,23.31
2018-11-11T18:51:45.906Z,23.86
2018-11-11T18:54:22.282Z,23.86
2018-11-11T18:56:57.955Z,24.03
2018-11-11T18:59:33.811Z,24.18
2018-11-11T19:02:09.757Z,24.45
2018-11-11T19:04:46.292Z,23.08
2018-11-11T19:07:22.262Z,23.92
2018-11-11T19:12:50.304Z,24.32
2018-11-11T19:15:26.267Z,23.10
2018-11-11T19:18:02.072Z,23.27
2018-11-11T19:20:38.002Z,23.79
2018-11-11T19:23:13.925Z,24.32
2018-11-11T19:25:49.845Z,24.29
2018-11-11T19:28:25.624Z,24.42
2018-11-11T19:31:02.061Z,23.23
2018-11-11T19:33:37.908Z,23.80
2018-11-11T19:43:08.488Z,23.59
2018-11-11T19:45:44.050Z,23.32
2018-11-11T19:48:19.905Z,23.61
2018-11-11T19:50:55.653Z,24.50
2018-11-11T19:54:00.304Z,23.21
2018-11-11T19:56:35.800Z,23.91
2018-11-11T19:59:12.099Z,24.00
2018-11-11T20:01:47.818Z,24.45
2018-11-11T20:04:23.509Z,24.05
2018-11-11T20:06:59.293Z,23.87
2018-11-11T20:09:34.947Z,24.62
2018-11-11T20:12:11.096Z,24.75
2018-11-11T20:14:47.473Z,24.83
2018-11-11T20:17:23.365Z,24.33
2018-11-11T20:19:59.728Z,24.05
2018-11-11T20:22:36.361Z,24.23
2018-11-11T20:25:13.953Z,24.30
2018-11-11T20:28:48.088Z,25.01
2018-11-11T20:31:24.605Z,24.73
2018-11-11T20:34:01.296Z,24.52
2018-11-11T20:36:37.452Z,23.86
2018-11-11T20:40:50.170Z,26.06
2018-11-11T20:43:26.817Z,22.00
2018-11-11T20:46:05.227Z,19.77
2018-11-11T20:48:41.294Z,18.65
2018-11-11T20:51:17.492Z,16.57
2018-11-11T20:53:53.447Z,15.55
2018-11-11T20:56:29.908Z,14.36
2018-11-11T20:59:45.147Z,13.34
2018-11-11T21:02:21.340Z,11.88
2018-11-11T21:04:57.250Z,11.74
2018-11-11T21:07:33.521Z,11.26
2018-11-11T21:10:10.913Z,10.89
2018-11-11T21:53:37.293Z,16.25
2018-11-11T21:56:12.300Z,16.08
2018-11-11T21:58:49.204Z,14.26
2018-11-11T22:01:26.849Z,14.16
2018-11-11T22:04:04.600Z,13.14
2018-11-11T22:06:41.311Z,13.46
2018-11-11T22:09:20.998Z,14.03
2018-11-11T22:12:01.130Z,13.19
2018-11-11T22:14:37.881Z,13.56
2018-11-11T22:17:20.051Z,12.64
2018-11-11T22:22:51.948Z,13.59
2018-11-11T22:25:29.284Z,13.31
2018-11-11T22:28:07.380Z,13.86
2018-11-11T22:30:44.264Z,13.60
2018-11-11T22:33:21.358Z,13.04
2018-11-11T22:35:58.213Z,14.06
2018-11-11T22:38:34.073Z,13.87
2018-11-11T22:41:12.107Z,15.21
2018-11-11T22:43:49.568Z,15.04
2018-11-11T22:46:28.885Z,15.42
2018-11-11T22:49:06.689Z,14.94
2018-11-11T22:51:44.463Z,15.12
2018-11-11T22:54:20.941Z,14.36
2018-11-11T22:56:58.199Z,14.93
2018-11-11T22:59:36.343Z,15.13
2018-11-11T23:02:13.323Z,15.45
2018-11-11T23:04:50.786Z,14.55
2018-11-11T23:07:28.462Z,14.21
2018-11-11T23:10:07.884Z,13.19
2018-11-11T23:12:44.504Z,14.28
2018-11-11T23:15:23.626Z,13.85
2018-11-11T23:17:59.272Z,13.92
2018-11-11T23:20:33.279Z,13.50
2018-11-11T23:23:11.237Z,14.26
2018-11-11T23:25:49.313Z,13.19
2018-11-11T23:28:26.979Z,13.24
2018-11-11T23:31:05.287Z,14.18
2018-11-11T23:33:45.924Z,14.00
2018-11-11T23:36:23.066Z,14.18
2018-11-11T23:38:59.355Z,14.42
2018-11-11T23:41:36.006Z,14.79
2018-11-11T23:44:16.219Z,13.85
2018-11-11T23:46:53.908Z,15.02
2018-11-11T23:49:33.503Z,14.66
2018-11-11T23:52:12.036Z,13.57
2018-11-11T23:54:49.139Z,14.75
2018-11-11T23:57:26.138Z,15.46
